Time;durP1;ratioP1;P1;durP2;ratioP2;P2;SDS_P1;SDS_P2;PMS_P1;PMS_P2;Temp;Humidity;BMP_temperature;BMP_pressure;BME280_temperature;BME280_humidity;BME280_pressure;Samples;Min_cycle;Max_cycle;Signal;HPM_P1;HPM_P2
2021/09/07 00:00:31;;;;;;;50.75;18.13;;;18.20;95.60;;;;;;5073510;28;20501;-76
2021/09/07 00:02:57;;;;;;;40.15;16.83;;;18.10;95.70;;;;;;5108491;28;20101;-76
2021/09/07 00:05:23;;;;;;;36.60;13.73;;;18.10;95.80;;;;;;5073214;28;20058;-78
2021/09/07 00:07:48;;;;;;;35.75;15.23;;;18.10;95.80;;;;;;5072778;28;20031;-76
2021/09/07 00:10:14;;;;;;;37.33;16.05;;;18.10;96.00;;;;;;5090147;28;20032;-78
2021/09/07 00:12:41;;;;;;;37.85;15.80;;;18.00;96.00;;;;;;5090212;28;20024;-78
2021/09/07 00:15:09;;;;;;;35.72;16.30;;;18.10;96.10;;;;;;5108441;28;20345;-79
2021/09/07 00:17:35;;;;;;;49.15;17.63;;;18.00;96.20;;;;;;5108222;28;20020;-77
2021/09/07 00:20:01;;;;;;;;;;;18.00;96.20;;;;;;5108828;28;20103;-78
2021/09/07 00:22:27;;;;;;;34.80;16.50;;;18.00;96.20;;;;;;5108332;28;20468;-78
2021/09/07 00:24:52;;;;;;;39.00;16.13;;;18.00;96.10;;;;;;5073247;28;20020;-79
2021/09/07 00:27:18;;;;;;;44.78;18.35;;;18.00;96.20;;;;;;5108045;28;20118;-79
2021/09/07 00:29:44;;;;;;;43.20;18.10;;;17.90;96.30;;;;;;5089769;28;20054;-80
2021/09/07 00:32:09;;;;;;;41.22;18.85;;;17.90;96.40;;;;;;5073039;28;20081;-78
2021/09/07 00:34:35;;;;;;;35.00;16.45;;;17.90;96.60;;;;;;5108122;28;20517;-79
2021/09/07 00:37:02;;;;;;;37.28;15.45;;;17.80;96.60;;;;;;5107891;28;20303;-80
2021/09/07 00:39:28;;;;;;;31.70;14.43;;;17.80;96.90;;;;;;5089933;28;20105;-80
2021/09/07 00:41:53;;;;;;;40.22;16.75;;;17.80;96.70;;;;;;5108043;28;20027;-78
2021/09/07 00:44:24;;;;;;;41.55;16.70;;;17.80;96.80;;;;;;5107972;28;20505;-78
2021/09/07 00:46:53;;;;;;;33.33;15.23;;;17.70;96.80;;;;;;5107688;28;20142;-78
2021/09/07 00:49:19;;;;;;;38.65;17.98;;;17.80;96.70;;;;;;5089535;28;20020;-78
2021/09/07 00:51:46;;;;;;;36.85;14.80;;;17.80;96.70;;;;;;5072854;28;20434;-80
2021/09/07 00:54:13;;;;;;;36.05;14.35;;;17.70;96.70;;;;;;5089673;28;20034;-78
2021/09/07 00:56:41;;;;;;;34.22;14.95;;;17.70;96.70;;;;;;5073028;28;20705;-78
2021/09/07 00:59:08;;;;;;;31.10;14.65;;;17.70;96.80;;;;;;5107685;28;20024;-79
2021/09/07 01:01:34;;;;;;;40.28;16.13;;;17.70;96.70;;;;;;5089558;28;20595;-79
2021/09/07 01:03:59;;;;;;;;;;;17.70;96.70;;;;;;5108364;28;20031;-79
2021/09/07 01:06:26;;;;;;;30.83;13.52;;;17.70;96.60;;;;;;5089559;28;20255;-78
2021/09/07 01:08:53;;;;;;;27.70;12.80;;;17.70;96.40;;;;;;5089644;28;20032;-79
2021/09/07 01:11:19;;;;;;;30.70;11.43;;;17.60;96.40;;;;;;5107785;28;20072;-80
2021/09/07 01:13:46;;;;;;;33.55;13.55;;;17.60;96.30;;;;;;5089388;28;20363;-79
2021/09/07 01:16:12;;;;;;;36.58;14.25;;;17.60;96.30;;;;;;5072470;28;20038;-78
2021/09/07 01:18:38;;;;;;;32.28;14.48;;;17.60;96.30;;;;;;5090202;28;20024;-79
2021/09/07 01:21:09;;;;;;;33.65;13.48;;;17.50;96.30;;;;;;5111754;28;20024;-80
2021/09/07 01:23:36;;;;;;;25.50;11.63;;;17.50;96.40;;;;;;5093450;28;20042;-79
2021/09/07 01:26:01;;;;;;;23.55;10.63;;;17.40;96.50;;;;;;5093349;28;20036;-79
2021/09/07 01:28:29;;;;;;;23.70;11.05;;;17.40;96.50;;;;;;5111463;28;20023;-79
2021/09/07 01:30:55;;;;;;;23.63;10.55;;;17.40;96.40;;;;;;5093126;28;20118;-79
2021/09/07 01:33:21;;;;;;;23.98;10.35;;;17.40;96.30;;;;;;5111496;28;20470;-78
2021/09/07 01:35:47;;;;;;;25.23;10.10;;;17.40;96.30;;;;;;5093115;28;20024;-79
2021/09/07 01:38:13;;;;;;;21.42;10.32;;;17.40;96.20;;;;;;5093296;28;20038;-79
2021/09/07 01:40:39;;;;;;;31.52;12.40;;;17.30;96.20;;;;;;5093002;28;20126;-79
2021/09/07 01:43:04;;;;;;;28.20;11.95;;;17.30;96.20;;;;;;5093108;28;20028;-78
2021/09/07 01:45:30;;;;;;;25.13;10.38;;;17.30;96.20;;;;;;5111245;28;20032;-79
2021/09/07 01:47:56;;;;;;;28.75;11.07;;;17.30;96.20;;;;;;5092778;28;20454;-77
2021/09/07 01:50:22;;;;;;;17.02;7.97;;;17.20;96.30;;;;;;5111164;28;20074;-78
2021/09/07 01:52:48;;;;;;;16.52;7.90;;;17.20;96.30;;;;;;5093236;28;20038;-78
2021/09/07 01:55:13;;;;;;;18.48;9.30;;;17.10;96.40;;;;;;5075945;28;20036;-79
2021/09/07 01:57:39;;;;;;;17.42;8.73;;;17.10;96.60;;;;;;5059190;28;20023;-78
2021/09/07 02:00:06;;;;;;;17.25;8.00;;;17.10;96.70;;;;;;5092802;28;20039;-78
2021/09/07 02:02:32;;;;;;;33.88;12.40;;;17.10;96.60;;;;;;5110894;28;20028;-78
2021/09/07 02:04:57;;;;;;;26.23;11.23;;;17.20;96.70;;;;;;5075750;28;20061;-80
2021/09/07 02:07:23;;;;;;;22.33;9.90;;;17.30;96.60;;;;;;5110941;28;20160;-79
2021/09/07 02:09:51;;;;;;;29.60;10.15;;;17.30;96.50;;;;;;5092398;28;20055;-79
2021/09/07 02:12:16;;;;;;;22.08;9.93;;;17.40;96.40;;;;;;5092810;28;20028;-79
2021/09/07 02:14:42;;;;;;;33.95;11.88;;;17.50;96.30;;;;;;5110758;28;20020;-79
2021/09/07 02:17:08;;;;;;;39.58;13.98;;;17.50;96.20;;;;;;5110771;28;20486;-78
2021/09/07 02:19:34;;;;;;;39.50;13.32;;;17.60;96.10;;;;;;5110625;28;20042;-79
2021/09/07 02:21:59;;;;;;;44.25;13.88;;;17.60;96.10;;;;;;5110571;28;20027;-78
2021/09/07 02:24:25;;;;;;;115.25;19.65;;;17.60;96.20;;;;;;5110466;28;20508;-78
2021/09/07 02:26:51;;;;;;;108.32;19.45;;;17.60;96.20;;;;;;5092111;28;20031;-78
2021/09/07 02:29:16;;;;;;;132.77;23.40;;;17.70;96.30;;;;;;5092378;28;20440;-78
2021/09/07 02:31:42;;;;;;;125.97;25.10;;;17.70;96.20;;;;;;5110033;28;20027;-79
2021/09/07 02:34:08;;;;;;;86.60;18.60;;;17.70;96.30;;;;;;5092037;28;20028;-78
2021/09/07 02:36:33;;;;;;;141.75;21.45;;;17.70;96.30;;;;;;5110055;28;20518;-79
2021/09/07 02:38:59;;;;;;;216.20;25.58;;;17.70;96.40;;;;;;5091995;28;20389;-79
2021/09/07 02:41:25;;;;;;;119.18;18.58;;;17.70;96.50;;;;;;5075010;28;20035;-77
2021/09/07 02:43:51;;;;;;;185.38;23.02;;;17.70;96.60;;;;;;5110116;28;20027;-76
2021/09/07 02:46:17;;;;;;;179.95;23.58;;;17.70;96.70;;;;;;5091767;28;20028;-76
2021/09/07 02:48:42;;;;;;;259.20;26.08;;;17.70;96.70;;;;;;5091738;28;20035;-78
2021/09/07 02:51:08;;;;;;;172.70;22.75;;;17.70;96.60;;;;;;5091662;28;20031;-78
2021/09/07 02:53:34;;;;;;;294.30;27.73;;;17.70;96.70;;;;;;5109877;28;20072;-79
2021/09/07 02:56:00;;;;;;;258.33;26.33;;;17.70;96.80;;;;;;5074715;28;20394;-75
2021/09/07 02:58:26;;;;;;;197.02;24.20;;;17.60;96.80;;;;;;5109905;28;20024;-76
2021/09/07 03:00:51;;;;;;;319.92;28.30;;;17.60;96.90;;;;;;5091608;28;20378;-78
2021/09/07 03:03:17;;;;;;;318.98;30.13;;;17.60;96.90;;;;;;5074633;28;20028;-75
2021/09/07 03:05:43;;;;;;;222.43;26.00;;;17.70;96.90;;;;;;5091346;28;20032;-77
2021/09/07 03:08:08;;;;;;;231.05;24.50;;;17.70;97.00;;;;;;5091505;28;20440;-76
2021/09/07 03:10:34;;;;;;;116.07;21.13;;;17.70;96.90;;;;;;5091275;28;20036;-75
2021/09/07 03:13:00;;;;;;;190.48;24.58;;;17.70;97.00;;;;;;5091388;28;20055;-76
2021/09/07 03:15:26;;;;;;;143.82;21.00;;;17.70;97.00;;;;;;5109438;28;20081;-76
2021/09/07 03:17:51;;;;;;;316.60;30.08;;;17.70;97.00;;;;;;5091071;28;20032;-77
2021/09/07 03:20:17;;;;;;;356.13;28.63;;;17.70;97.00;;;;;;5109395;28;20036;-77
2021/09/07 03:22:43;;;;;;;279.13;28.38;;;17.70;97.00;;;;;;5109288;28;20110;-77
2021/09/07 03:25:09;;;;;;;257.27;26.98;;;17.60;97.00;;;;;;5074180;28;20520;-77
2021/09/07 03:27:35;;;;;;;300.20;27.48;;;17.60;97.10;;;;;;5090846;28;20044;-77
2021/09/07 03:30:01;;;;;;;402.00;36.45;;;17.60;97.10;;;;;;5090965;28;20111;-78
2021/09/07 03:32:26;;;;;;;286.73;26.52;;;17.60;97.10;;;;;;5109185;28;20092;-77
2021/09/07 03:34:52;;;;;;;185.27;23.48;;;17.60;97.10;;;;;;5109251;28;20027;-76
2021/09/07 03:37:18;;;;;;;316.58;27.40;;;17.60;97.20;;;;;;5073893;28;20023;-78
2021/09/07 03:39:43;;;;;;;241.32;28.10;;;17.60;97.20;;;;;;5108977;28;20398;-77
2021/09/07 03:42:09;;;;;;;161.73;22.65;;;17.50;97.20;;;;;;5089803;28;20035;-77
2021/09/07 03:44:35;;;;;;;252.85;28.38;;;17.40;97.30;;;;;;5073933;28;20415;-76
2021/09/07 03:47:01;;;;;;;185.02;23.27;;;17.40;97.50;;;;;;5073481;28;20044;-77
2021/09/07 03:49:26;;;;;;;246.05;27.73;;;17.40;97.50;;;;;;5108689;28;20123;-78
2021/09/07 03:51:52;;;;;;;333.60;31.25;;;17.40;97.50;;;;;;5090724;28;20031;-78
2021/09/07 03:54:18;;;;;;;233.07;27.67;;;17.30;97.40;;;;;;5108572;28;20110;-77
2021/09/07 03:56:43;;;;;;;381.63;32.65;;;17.40;97.40;;;;;;5108534;28;20020;-77
2021/09/07 03:59:09;;;;;;;484.65;40.03;;;17.30;97.50;;;;;;5073227;28;20039;-75
2021/09/07 04:01:35;;;;;;;170.38;23.15;;;17.30;97.50;;;;;;5090436;28;20028;-78
2021/09/07 04:04:00;;;;;;;499.55;40.45;;;17.20;97.60;;;;;;5108565;28;20071;-77
2021/09/07 04:06:26;;;;;;;319.83;29.30;;;17.20;97.80;;;;;;5073408;28;20104;-77
2021/09/07 04:08:52;;;;;;;286.45;27.85;;;17.20;97.80;;;;;;5090172;28;20332;-76
2021/09/07 04:11:18;;;;;;;218.00;25.23;;;17.20;97.90;;;;;;5073253;28;20046;-78
2021/09/07 04:13:43;;;;;;;267.42;29.75;;;17.10;97.90;;;;;;5108501;28;20034;-77
2021/09/07 04:16:09;;;;;;;329.55;33.97;;;17.20;97.90;;;;;;5108279;28;20474;-76
2021/09/07 04:18:34;;;;;;;319.42;33.80;;;17.10;97.90;;;;;;5108352;28;20036;-76
2021/09/07 04:21:00;;;;;;;216.98;26.98;;;17.00;98.00;;;;;;5073228;28;20023;-76
2021/09/07 04:23:26;;;;;;;326.38;31.05;;;17.00;98.20;;;;;;5108151;28;20403;-76
2021/09/07 04:25:52;;;;;;;379.60;36.47;;;17.00;98.30;;;;;;5090202;28;20111;-76
2021/09/07 04:28:17;;;;;;;257.70;28.73;;;16.90;98.20;;;;;;5108202;28;20043;-75
2021/09/07 04:30:43;;;;;;;334.13;33.35;;;17.00;98.20;;;;;;5090034;28;20054;-76
2021/09/07 04:33:09;;;;;;;326.45;32.92;;;17.00;98.10;;;;;;5108563;28;20310;-76
2021/09/07 04:35:34;;;;;;;168.77;24.25;;;17.10;98.00;;;;;;5107986;28;20038;-77
2021/09/07 04:38:00;;;;;;;239.05;27.25;;;17.10;98.00;;;;;;5090379;28;20031;-75
2021/09/07 04:40:26;;;;;;;134.40;21.45;;;17.10;98.00;;;;;;5108178;28;20101;-77
2021/09/07 04:42:51;;;;;;;247.68;26.10;;;17.10;98.00;;;;;;5089871;28;20497;-76
2021/09/07 04:45:17;;;;;;;277.20;28.65;;;17.20;98.00;;;;;;5072979;28;20054;-77
2021/09/07 04:47:43;;;;;;;335.52;33.45;;;17.20;98.00;;;;;;5107718;28;20398;-76
2021/09/07 04:50:09;;;;;;;239.93;27.25;;;17.20;97.90;;;;;;5089643;28;20028;-76
2021/09/07 04:52:34;;;;;;;238.35;25.00;;;17.30;98.00;;;;;;5107692;28;20020;-75
2021/09/07 04:55:00;;;;;;;279.88;28.48;;;17.30;98.10;;;;;;5113821;28;20409;-76
2021/09/07 04:57:26;;;;;;;280.33;30.88;;;17.30;98.10;;;;;;5114525;28;20028;-77
2021/09/07 04:59:51;;;;;;;303.48;29.90;;;17.30;98.10;;;;;;5114671;28;20028;-76
2021/09/07 05:02:17;;;;;;;254.20;27.77;;;17.30;98.00;;;;;;5115091;28;20035;-78
2021/09/07 05:04:43;;;;;;;158.82;23.38;;;17.30;97.90;;;;;;5062793;28;20122;-76
2021/09/07 05:07:09;;;;;;;177.70;23.45;;;17.30;98.00;;;;;;5096378;28;20036;-78
2021/09/07 05:09:34;;;;;;;332.00;30.00;;;17.30;98.20;;;;;;5096440;28;20028;-78
2021/09/07 05:12:00;;;;;;;330.17;33.53;;;17.30;98.20;;;;;;5096402;28;20454;-77
2021/09/07 05:14:26;;;;;;;159.23;24.92;;;17.30;98.20;;;;;;5079267;28;20050;-76
2021/09/07 05:16:51;;;;;;;310.85;30.20;;;17.30;98.30;;;;;;5096270;28;20059;-76
2021/09/07 05:19:17;;;;;;;310.75;34.45;;;17.30;98.30;;;;;;5114445;28;20118;-76
2021/09/07 05:21:43;;;;;;;395.30;36.20;;;17.30;98.30;;;;;;5096106;28;20084;-77
2021/09/07 05:24:09;;;;;;;517.00;47.58;;;17.30;98.30;;;;;;5114336;28;20024;-76
2021/09/07 05:26:35;;;;;;;150.20;24.98;;;17.30;98.40;;;;;;5095898;28;20028;-76
2021/09/07 05:29:01;;;;;;;150.60;22.13;;;17.30;98.50;;;;;;5096012;28;20102;-77
2021/09/07 05:31:26;;;;;;;317.90;32.15;;;17.30;98.60;;;;;;5079097;28;20466;-77
2021/09/07 05:33:52;;;;;;;95.30;18.70;;;17.30;98.70;;;;;;5114179;28;20031;-76
2021/09/07 05:36:18;;;;;;;186.55;24.42;;;17.30;98.70;;;;;;5114197;28;20062;-76
2021/09/07 05:38:43;;;;;;;99.88;19.23;;;17.30;98.60;;;;;;5114312;28;20544;-76
2021/09/07 05:41:09;;;;;;;243.50;29.58;;;17.30;98.70;;;;;;5096403;28;20110;-77
2021/09/07 05:43:35;;;;;;;237.55;28.83;;;17.30;98.60;;;;;;5114237;28;20043;-78
2021/09/07 05:46:01;;;;;;;144.18;22.88;;;17.40;98.40;;;;;;5114130;28;20068;-77
2021/09/07 05:48:26;;;;;;;242.20;27.27;;;17.40;98.40;;;;;;5078734;28;20052;-76
2021/09/07 05:50:52;;;;;;;81.00;21.27;;;17.40;98.40;;;;;;5114100;28;20470;-75
2021/09/07 05:53:18;;;;;;;132.23;21.05;;;17.40;98.30;;;;;;5095850;28;20036;-77
2021/09/07 05:55:44;;;;;;;153.27;23.38;;;17.40;98.30;;;;;;5095857;28;20472;-76
2021/09/07 05:58:09;;;;;;;90.60;20.02;;;17.40;98.20;;;;;;5095660;28;20032;-77
2021/09/07 06:00:35;;;;;;;117.03;22.52;;;17.40;98.30;;;;;;5114091;28;20066;-75
2021/09/07 06:03:07;;;;;;;83.70;20.42;;;17.40;98.30;;;;;;5095720;28;20366;-78
2021/09/07 06:05:33;;;;;;;84.75;21.65;;;17.40;98.40;;;;;;5092842;28;20051;-76
2021/09/07 06:07:59;;;;;;;114.93;20.33;;;17.40;98.50;;;;;;5110566;28;20070;-76
2021/09/07 06:10:24;;;;;;;96.03;20.45;;;17.50;98.50;;;;;;5075379;28;20047;-77
2021/09/07 06:12:50;;;;;;;143.68;23.83;;;17.50;98.50;;;;;;5075353;28;20032;-76
2021/09/07 06:15:16;;;;;;;174.40;26.27;;;17.60;98.40;;;;;;5092317;28;20040;-77
2021/09/07 06:17:42;;;;;;;105.78;22.88;;;17.60;98.40;;;;;;5091961;28;20031;-76
2021/09/07 06:20:08;;;;;;;101.95;21.08;;;17.60;98.50;;;;;;5092157;28;20043;-75
2021/09/07 06:22:34;;;;;;;45.83;16.02;;;17.60;98.50;;;;;;5091891;28;20574;-76
2021/09/07 06:24:59;;;;;;;83.90;20.33;;;17.60;98.70;;;;;;5092151;28;20289;-77
2021/09/07 06:27:25;;;;;;;156.15;23.75;;;17.70;98.80;;;;;;5110341;28;20058;-77
2021/09/07 06:29:51;;;;;;;134.07;21.27;;;17.70;98.70;;;;;;5091785;28;20027;-77
2021/09/07 06:32:17;;;;;;;228.90;28.77;;;17.80;98.60;;;;;;5091891;28;20039;-75
2021/09/07 06:34:43;;;;;;;121.15;20.85;;;17.80;98.60;;;;;;5110003;28;20020;-78
2021/09/07 06:37:09;;;;;;;98.55;21.40;;;17.80;98.60;;;;;;5074948;28;20386;-77
2021/09/07 06:39:37;;;;;;;170.93;20.55;;;17.80;98.60;;;;;;5074781;28;20042;-76
2021/09/07 06:42:04;;;;;;;36.15;12.70;;;17.80;98.70;;;;;;5075046;28;20038;-77
2021/09/07 06:44:30;;;;;;;93.95;16.15;;;17.80;98.80;;;;;;5091745;28;20035;-78
2021/09/07 06:46:56;;;;;;;63.35;15.63;;;17.90;98.90;;;;;;5091191;28;20100;-78
2021/09/07 06:49:21;;;;;;;133.60;18.48;;;17.90;98.90;;;;;;5091312;28;20040;-79
2021/09/07 06:51:47;;;;;;;87.20;15.60;;;17.90;98.80;;;;;;5109685;28;20478;-77
2021/09/07 06:54:13;;;;;;;49.83;13.18;;;18.10;98.70;;;;;;5091453;28;20073;-77
2021/09/07 06:56:38;;;;;;;99.00;18.02;;;18.10;98.70;;;;;;5110202;28;20023;-74
2021/09/07 06:59:04;;;;;;;62.35;15.35;;;18.10;98.80;;;;;;5074020;28;20055;-73
2021/09/07 07:01:30;;;;;;;68.15;13.45;;;18.10;98.90;;;;;;5091386;28;20043;-79
2021/09/07 07:03:55;;;;;;;47.33;14.60;;;18.20;99.00;;;;;;5074243;28;20371;-79
2021/09/07 07:06:21;;;;;;;53.33;13.60;;;18.20;99.00;;;;;;5109214;28;20115;-80
2021/09/07 07:08:47;;;;;;;103.00;18.08;;;18.30;99.00;;;;;;5091081;28;20032;-78
2021/09/07 07:11:13;;;;;;;39.53;13.63;;;18.30;98.90;;;;;;5090927;28;20024;-77
2021/09/07 07:13:38;;;;;;;160.73;21.63;;;18.40;98.90;;;;;;5091311;28;20148;-78
2021/09/07 07:16:04;;;;;;;50.50;15.75;;;18.40;98.80;;;;;;5090842;28;20027;-77
2021/09/07 07:18:31;;;;;;;61.25;16.52;;;18.50;98.80;;;;;;5090764;28;20042;-77
2021/09/07 07:20:57;;;;;;;60.10;15.32;;;18.60;98.90;;;;;;5109169;28;20392;-79
2021/09/07 07:23:23;;;;;;;75.05;15.63;;;18.70;98.80;;;;;;5090857;28;20024;-78
2021/09/07 07:25:48;;;;;;;50.80;14.48;;;18.80;98.70;;;;;;5090545;28;20032;-77
2021/09/07 07:28:14;;;;;;;;;;;18.90;98.70;;;;;;5073839;28;20131;-79
2021/09/07 07:30:40;;;;;;;68.38;16.35;;;19.00;98.70;;;;;;5108742;28;20006;-76
2021/09/07 07:33:06;;;;;;;54.00;16.83;;;19.00;98.50;;;;;;5108591;28;20035;-78
2021/09/07 07:35:31;;;;;;;53.47;16.92;;;19.10;98.50;;;;;;5109162;28;20032;-78
2021/09/07 07:37:57;;;;;;;;;;;19.20;98.50;;;;;;5109012;28;20027;-78
2021/09/07 07:40:24;;;;;;;83.90;20.25;;;19.30;98.40;;;;;;5108577;28;19964;-78
2021/09/07 07:42:50;;;;;;;101.35;21.85;;;19.40;98.20;;;;;;5073683;28;20643;-76
2021/09/07 07:45:15;;;;;;;90.38;19.45;;;19.50;98.20;;;;;;5108709;28;20070;-76
2021/09/07 07:47:41;;;;;;;;;;;19.60;98.10;;;;;;5090054;28;20146;-77
2021/09/07 07:50:07;;;;;;;54.67;15.82;;;19.70;98.00;;;;;;5107859;28;19912;-77
2021/09/07 07:52:32;;;;;;;;;;;19.90;97.80;;;;;;5108690;28;20469;-76
2021/09/07 07:54:58;;;;;;;35.10;14.32;;;20.00;97.70;;;;;;5107963;28;19914;-77
2021/09/07 07:57:24;;;;;;;69.78;16.88;;;19.90;97.60;;;;;;5089466;28;20276;-76
2021/09/07 07:59:51;;;;;;;91.18;18.25;;;20.00;97.50;;;;;;5072797;28;20039;-76
2021/09/07 08:02:16;;;;;;;57.40;15.00;;;20.10;97.40;;;;;;5089708;28;20031;-78
2021/09/07 08:04:42;;;;;;;;;;;20.20;97.20;;;;;;5056433;28;20035;-78
2021/09/07 08:07:08;;;;;;;39.00;14.02;;;20.30;97.10;;;;;;5107560;28;20210;-77
2021/09/07 08:09:33;;;;;;;;;;;20.30;96.90;;;;;;5090126;28;20142;-78
2021/09/07 08:11:59;;;;;;;86.05;15.13;;;20.30;97.00;;;;;;5089130;28;19912;-80
2021/09/07 08:14:26;;;;;;;;;;;20.40;96.90;;;;;;5107546;28;20024;-78
2021/09/07 08:16:52;;;;;;;30.67;13.33;;;20.40;96.80;;;;;;5107702;28;19933;-78
2021/09/07 08:19:18;;;;;;;23.52;11.07;;;20.40;96.80;;;;;;5072597;28;20292;-79
2021/09/07 08:21:43;;;;;;;;;;;20.40;96.80;;;;;;5089588;28;20426;-78
2021/09/07 08:24:09;;;;;;;23.92;11.65;;;20.40;96.80;;;;;;5107507;28;19912;-77
2021/09/07 08:26:35;;;;;;;;;;;20.30;96.80;;;;;;5089288;28;20031;-80
2021/09/07 08:29:01;;;;;;;27.08;11.18;;;20.40;96.90;;;;;;5088423;28;19911;-78
2021/09/07 08:31:26;;;;;;;;;;;20.50;96.80;;;;;;5088251;28;20064;-78
2021/09/07 08:33:52;;;;;;;36.50;11.05;;;20.60;96.80;;;;;;5106685;28;19994;-80
2021/09/07 08:36:17;;;;;;;;;;;20.80;96.60;;;;;;5107086;28;20115;-79
2021/09/07 08:38:43;;;;;;;31.05;12.35;;;20.80;96.50;;;;;;5089155;28;19956;-79
2021/09/07 08:41:09;;;;;;;;;;;20.80;96.60;;;;;;5072187;28;20527;-77
2021/09/07 08:43:35;;;;;;;27.85;13.77;;;20.90;96.60;;;;;;5088614;28;19958;-79
2021/09/07 08:46:01;;;;;;;29.50;12.90;;;20.90;96.50;;;;;;5106927;28;20020;-78
2021/09/07 08:48:27;;;;;;;;;;;20.90;96.20;;;;;;5107135;28;20089;-79
2021/09/07 08:50:54;;;;;;;32.65;15.73;;;20.90;96.40;;;;;;5106278;28;20331;-80
2021/09/07 08:53:21;;;;;;;33.08;14.18;;;20.90;96.20;;;;;;5106119;28;20027;-82
2021/09/07 08:55:47;;;;;;;28.13;13.40;;;21.00;96.20;;;;;;5086365;28;20020;-78
2021/09/07 08:58:13;;;;;;;;;;;21.10;96.10;;;;;;5070409;28;20504;-80
2021/09/07 09:00:39;;;;;;;27.73;14.52;;;21.30;96.20;;;;;;5092027;28;19908;-78
2021/09/07 09:03:08;;;;;;;;;;;21.60;95.90;;;;;;5094229;28;20031;-78
2021/09/07 09:05:34;;;;;;;31.00;13.85;;;21.80;95.70;;;;;;5110847;28;19915;-79
2021/09/07 09:08:00;;;;;;;;;;;21.80;95.30;;;;;;5093229;28;20470;-78
2021/09/07 09:10:27;;;;;;;32.63;14.75;;;21.80;95.00;;;;;;5093272;28;19916;-80
2021/09/07 09:13:16;;;;;;;33.58;15.38;;;21.60;95.00;;;;;;5089925;28;20042;-79
2021/09/07 09:16:06;;;;;;;31.38;15.32;;;21.50;95.10;;;;;;5107923;28;20105;-80
2021/09/07 09:18:37;;;;;;;38.03;15.77;;;21.50;95.20;;;;;;5108418;28;20028;-79
2021/09/07 09:21:30;;;;;;;31.45;15.93;;;21.70;95.10;;;;;;5108526;28;20042;-79
2021/09/07 09:24:19;;;;;;;38.08;17.67;;;21.90;94.90;;;;;;5091085;28;20121;-79
2021/09/07 09:27:03;;;;;;;40.22;17.45;;;22.10;94.80;;;;;;5108549;28;20027;-79
2021/09/07 09:29:32;;;;;;;43.00;18.95;;;22.30;94.50;;;;;;5090440;28;20081;-79
2021/09/07 09:32:13;;;;;;;40.80;17.70;;;22.40;94.10;;;;;;5108111;28;20030;-77
2021/09/07 09:34:40;;;;;;;47.67;20.75;;;22.50;94.00;;;;;;5107506;28;20032;-78
2021/09/07 09:37:14;;;;;;;55.25;22.75;;;22.60;94.10;;;;;;5073466;28;20121;-77
2021/09/07 09:39:50;;;;;;;54.78;23.80;;;22.90;93.70;;;;;;5090399;28;20093;-77
2021/09/07 09:42:33;;;;;;;61.13;25.55;;;23.00;93.20;;;;;;5112317;28;20047;-79
2021/09/07 09:45:04;;;;;;;61.92;25.60;;;23.00;93.10;;;;;;5112224;28;20027;-79
2021/09/07 09:47:41;;;;;;;55.42;23.13;;;23.20;93.00;;;;;;5093904;28;20536;-80
2021/09/07 09:50:08;;;;;;;52.25;22.77;;;23.60;92.80;;;;;;5112517;28;20026;-77
2021/09/07 09:52:40;;;;;;;58.90;23.58;;;23.80;92.40;;;;;;5093879;28;20114;-78
2021/09/07 09:55:08;;;;;;;59.60;23.77;;;24.00;92.10;;;;;;5113045;28;20058;-78
2021/09/07 09:57:35;;;;;;;54.35;23.50;;;24.30;91.90;;;;;;5093797;28;20031;-79
2021/09/07 10:00:06;;;;;;;55.45;23.52;;;24.90;91.80;;;;;;5111993;28;20099;-77
2021/09/07 10:02:32;;;;;;;45.53;21.75;;;25.60;91.40;;;;;;5093339;28;20034;-77
2021/09/07 10:04:59;;;;;;;49.67;21.80;;;26.60;90.60;;;;;;5093373;28;20475;-75
2021/09/07 10:07:25;;;;;;;44.40;22.40;;;27.50;88.90;;;;;;5111289;28;20070;-76
2021/09/07 10:09:51;;;;;;;44.03;21.48;;;27.80;86.60;;;;;;5092875;28;20552;-74
2021/09/07 10:12:41;;;;;;;42.63;20.45;;;28.60;85.90;;;;;;5093696;28;20595;-75
2021/09/07 10:15:40;;;;;;;41.75;21.40;;;29.50;83.20;;;;;;5080549;28;20092;-78
2021/09/07 10:18:44;;;;;;;38.60;20.40;;;30.10;80.00;;;;;;5108239;28;20054;-81
2021/09/07 10:21:10;;;;;;;37.63;20.70;;;30.70;78.70;;;;;;5106309;28;20676;-77
2021/09/07 10:26:17;;;;;;;35.83;20.98;;;31.80;74.30;;;;;;5111296;28;20401;-76
2021/09/07 10:28:45;;;;;;;31.85;19.48;;;32.20;73.10;;;;;;5111340;28;20107;-79
2021/09/07 10:31:12;;;;;;;28.77;18.20;;;32.50;71.10;;;;;;5092788;28;20062;-75
2021/09/07 10:33:39;;;;;;;27.25;17.52;;;32.90;69.90;;;;;;5092883;28;20023;-81
2021/09/07 10:36:13;;;;;;;28.67;17.73;;;33.40;68.10;;;;;;5111028;28;20454;-77
2021/09/07 10:38:50;;;;;;;24.50;15.65;;;33.60;66.20;;;;;;5111335;28;20474;-76
2021/09/07 10:41:34;;;;;;;21.95;14.73;;;33.70;65.00;;;;;;5111293;28;20184;-77
2021/09/07 10:44:07;;;;;;;23.48;15.05;;;33.90;64.60;;;;;;5112441;28;20020;-79
2021/09/07 10:46:41;;;;;;;23.23;16.02;;;34.20;63.60;;;;;;5110321;28;20418;-75
2021/09/07 10:49:15;;;;;;;;;;;34.30;62.10;;;;;;5110430;28;20517;-77
2021/09/07 10:52:05;;;;;;;22.50;13.80;;;34.30;63.90;;;;;;5110066;28;19957;-74
2021/09/07 10:54:32;;;;;;;22.92;15.48;;;34.20;62.90;;;;;;5108991;28;20027;-76
2021/09/07 10:56:59;;;;;;;24.17;15.65;;;34.40;62.30;;;;;;5109769;28;20465;-77
2021/09/07 10:59:47;;;;;;;24.00;14.38;;;34.50;61.00;;;;;;5111111;28;20058;-77
2021/09/07 11:02:35;;;;;;;21.52;13.07;;;34.20;60.80;;;;;;5108966;28;20042;-76
2021/09/07 11:05:06;;;;;;;21.20;13.95;;;34.30;60.70;;;;;;5110383;28;20069;-79
2021/09/07 11:07:40;;;;;;;21.00;12.93;;;34.50;60.00;;;;;;5110189;28;20434;-77
2021/09/07 11:10:26;;;;;;;22.05;13.93;;;34.80;59.80;;;;;;5109994;28;20027;-77
2021/09/07 11:13:05;;;;;;;18.83;12.32;;;35.10;58.50;;;;;;5090759;28;20665;-76
2021/09/07 11:15:34;;;;;;;18.13;11.13;;;35.10;57.80;;;;;;5091238;28;20047;-77
2021/09/07 11:18:27;;;;;;;20.70;10.82;;;35.00;57.70;;;;;;5111087;28;21216;-78
2021/09/07 11:20:55;;;;;;;15.15;9.65;;;34.80;57.30;;;;;;5105317;28;20316;-77
2021/09/07 11:23:21;;;;;;;15.57;9.07;;;35.00;57.50;;;;;;5108968;28;20462;-76
2021/09/07 11:25:48;;;;;;;14.40;8.45;;;35.00;57.20;;;;;;5090857;28;20034;-77
2021/09/07 11:28:15;;;;;;;12.40;7.82;;;35.10;57.30;;;;;;5108978;28;20369;-78
2021/09/07 11:30:51;;;;;;;15.68;8.10;;;35.30;56.80;;;;;;5109769;28;20140;-80
2021/09/07 11:33:34;;;;;;;13.13;8.05;;;35.40;56.30;;;;;;5109767;28;20012;-79
2021/09/07 11:36:02;;;;;;;16.90;8.45;;;35.40;55.70;;;;;;5091265;28;20016;-78
2021/09/07 11:38:30;;;;;;;11.60;7.07;;;35.30;55.50;;;;;;5088990;28;20020;-82
2021/09/07 11:41:02;;;;;;;11.43;6.55;;;35.10;55.80;;;;;;5109766;28;20027;-82
2021/09/07 11:43:33;;;;;;;13.98;8.05;;;35.20;55.70;;;;;;5104827;28;20024;-79
2021/09/07 11:46:17;;;;;;;14.55;8.30;;;35.40;55.20;;;;;;5110121;28;20023;-77
2021/09/07 11:48:45;;;;;;;14.82;8.10;;;35.50;54.80;;;;;;5108574;28;20083;-78
2021/09/07 11:51:14;;;;;;;13.70;7.78;;;35.40;54.80;;;;;;5108716;28;20076;-73
2021/09/07 11:53:40;;;;;;;16.45;8.82;;;35.40;55.00;;;;;;5108774;28;20059;-74
2021/09/07 11:56:06;;;;;;;12.55;6.60;;;35.60;54.50;;;;;;5088068;28;20033;-76
2021/09/07 11:58:37;;;;;;;11.95;6.72;;;35.80;54.40;;;;;;5108408;28;20478;-74
2021/09/07 12:01:13;;;;;;;14.75;7.10;;;35.80;53.80;;;;;;5108573;28;20035;-76
2021/09/07 12:03:51;;;;;;;13.45;7.30;;;35.50;53.60;;;;;;5107390;28;20034;-76
2021/09/07 12:06:40;;;;;;;13.25;6.90;;;35.30;53.90;;;;;;5107490;28;20023;-78
2021/09/07 12:09:32;;;;;;;14.75;7.90;;;35.40;54.00;;;;;;5106108;28;20417;-73
2021/09/07 12:12:00;;;;;;;13.57;6.93;;;35.50;53.40;;;;;;5109041;28;20101;-75
2021/09/07 12:14:26;;;;;;;11.05;6.47;;;35.50;53.60;;;;;;5090956;28;20555;-77
2021/09/07 12:16:54;;;;;;;11.57;6.82;;;35.60;53.40;;;;;;5108450;28;20354;-75
2021/09/07 12:19:25;;;;;;;14.65;7.85;;;35.90;53.10;;;;;;5089411;28;20027;-77
2021/09/07 12:22:20;;;;;;;13.32;7.20;;;35.90;52.60;;;;;;5108237;28;20536;-75
2021/09/07 12:25:14;;;;;;;14.80;7.38;;;35.90;52.50;;;;;;5100479;28;20024;-75
2021/09/07 12:27:46;;;;;;;15.45;6.82;;;35.50;52.80;;;;;;5106670;28;20011;-78
2021/09/07 12:30:19;;;;;;;13.30;6.85;;;35.30;53.00;;;;;;5107843;28;20023;-76
2021/09/07 12:33:01;;;;;;;12.50;6.63;;;35.30;53.20;;;;;;5108469;28;20103;-76
2021/09/07 12:35:42;;;;;;;12.00;7.65;;;35.50;52.90;;;;;;5107951;28;20015;-76
2021/09/07 12:38:13;;;;;;;13.70;7.82;;;35.50;52.70;;;;;;5107984;28;20023;-75